createdAt,value
2022-11-29T00:02:07.867Z,68.18
2022-11-29T00:04:37.048Z,68.25
2022-11-29T00:07:04.767Z,68.38
2022-11-29T00:09:32.456Z,68.31
2022-11-29T00:12:12.436Z,68.35
2022-11-29T00:14:41.595Z,68.43
2022-11-29T00:17:09.631Z,68.42
2022-11-29T00:19:37.630Z,68.59
2022-11-29T00:22:05.578Z,68.61
2022-11-29T00:24:33.485Z,68.69
2022-11-29T00:27:01.887Z,68.54
2022-11-29T00:29:30.374Z,68.43
2022-11-29T00:31:59.047Z,68.44
2022-11-29T00:34:26.995Z,68.42
2022-11-29T00:36:54.926Z,68.28
2022-11-29T00:39:22.840Z,68.40
2022-11-29T00:41:50.543Z,68.45
2022-11-29T00:44:20.411Z,68.54
2022-11-29T00:46:49.992Z,68.72
2022-11-29T00:49:18.200Z,68.72
2022-11-29T00:51:47.226Z,69.16
2022-11-29T00:54:15.764Z,69.51
2022-11-29T00:56:44.073Z,69.29
2022-11-29T00:59:11.932Z,69.32
2022-11-29T01:01:39.922Z,69.22
2022-11-29T01:04:07.951Z,69.22
2022-11-29T01:06:35.708Z,69.30
2022-11-29T01:09:04.034Z,69.23
2022-11-29T01:11:32.246Z,69.14
2022-11-29T01:14:01.908Z,68.91
2022-11-29T01:16:31.355Z,68.94
2022-11-29T01:18:59.286Z,69.14
2022-11-29T01:21:27.329Z,69.41
2022-11-29T01:23:55.529Z,69.51
2022-11-29T01:26:26.496Z,69.49
2022-11-29T01:28:56.634Z,69.50
2022-11-29T01:31:36.064Z,69.69
2022-11-29T01:34:05.780Z,69.55
2022-11-29T01:36:34.056Z,69.10
2022-11-29T01:39:04.325Z,68.80
2022-11-29T01:41:35.302Z,68.66
2022-11-29T01:44:12.329Z,68.56
2022-11-29T01:46:45.696Z,68.76
2022-11-29T01:49:16.939Z,68.95
2022-11-29T01:51:50.415Z,69.24
2022-11-29T01:54:20.344Z,69.37
2022-11-29T01:56:50.789Z,68.90
2022-11-29T01:59:22.158Z,68.57
2022-11-29T02:01:49.949Z,68.38
2022-11-29T02:04:19.418Z,68.26
2022-11-29T02:06:48.524Z,67.84
2022-11-29T02:09:22.689Z,67.79
2022-11-29T02:12:09.341Z,67.85
2022-11-29T02:14:55.978Z,67.88
2022-11-29T02:17:36.172Z,67.82
2022-11-29T02:20:25.725Z,67.77
2022-11-29T02:23:23.003Z,67.81
2022-11-29T02:26:18.906Z,68.10
2022-11-29T02:29:19.564Z,68.10
2022-11-29T02:32:15.408Z,68.17
2022-11-29T02:34:57.548Z,68.05
2022-11-29T02:37:43.706Z,68.05
2022-11-29T02:40:35.866Z,68.35
2022-11-29T02:43:26.989Z,68.43
2022-11-29T02:46:00.857Z,68.52
2022-11-29T02:49:07.439Z,68.35
2022-11-29T02:51:52.609Z,67.75
2022-11-29T02:54:26.021Z,67.80
2022-11-29T02:57:00.155Z,67.85
2022-11-29T02:59:33.962Z,67.87
2022-11-29T03:02:26.810Z,67.98
2022-11-29T03:05:06.774Z,67.97
2022-11-29T03:08:06.196Z,68.03
2022-11-29T03:10:39.543Z,68.00
2022-11-29T03:13:20.582Z,67.97
2022-11-29T03:15:57.788Z,68.04
2022-11-29T03:18:28.679Z,68.02
2022-11-29T03:21:15.388Z,68.27
2022-11-29T03:24:14.125Z,68.21
2022-11-29T03:26:47.757Z,68.40
2022-11-29T03:29:15.464Z,68.26
2022-11-29T03:31:52.755Z,68.33
2022-11-29T03:34:36.564Z,68.14
2022-11-29T03:37:17.807Z,68.11
2022-11-29T03:39:52.087Z,68.10
2022-11-29T03:42:28.918Z,68.11
2022-11-29T03:45:11.076Z,68.11
2022-11-29T03:47:59.091Z,68.24
2022-11-29T03:50:35.139Z,68.22
2022-11-29T03:53:17.179Z,68.31
2022-11-29T03:55:55.071Z,68.15
2022-11-29T03:58:28.979Z,68.15
2022-11-29T04:01:09.460Z,68.01
2022-11-29T04:04:05.717Z,67.96
2022-11-29T04:07:12.988Z,68.11
2022-11-29T04:10:07.211Z,68.30
2022-11-29T04:13:13.311Z,68.52
2022-11-29T04:16:22.868Z,68.32
2022-11-29T04:19:34.758Z,68.30
2022-11-29T04:22:38.084Z,68.23
2022-11-29T04:25:33.082Z,68.31
2022-11-29T04:28:00.805Z,68.37
2022-11-29T04:30:45.542Z,68.46
2022-11-29T04:33:25.744Z,68.44
2022-11-29T04:36:11.738Z,68.30
2022-11-29T04:39:11.002Z,68.04
2022-11-29T04:42:08.154Z,68.17
2022-11-29T04:44:49.473Z,68.08
2022-11-29T04:47:26.358Z,68.20
2022-11-29T04:50:13.234Z,68.17
2022-11-29T04:52:44.207Z,68.29
2022-11-29T04:55:31.083Z,68.31
2022-11-29T04:58:22.606Z,68.21
2022-11-29T05:01:25.769Z,68.25
2022-11-29T05:04:01.229Z,68.48
2022-11-29T05:07:08.693Z,68.47
2022-11-29T05:09:58.974Z,68.34
2022-11-29T05:12:26.740Z,68.47
2022-11-29T05:15:28.815Z,68.53
2022-11-29T05:17:57.662Z,68.52
2022-11-29T05:20:25.532Z,68.56
2022-11-29T05:23:16.301Z,68.60
2022-11-29T05:26:09.398Z,68.70
2022-11-29T05:28:43.171Z,68.81
2022-11-29T05:31:39.385Z,68.70
2022-11-29T05:34:30.250Z,68.53
2022-11-29T05:37:20.069Z,68.74
2022-11-29T05:40:10.302Z,68.62
2022-11-29T05:43:10.492Z,68.45
2022-11-29T05:45:55.584Z,68.53
2022-11-29T05:48:38.307Z,68.45
2022-11-29T05:51:21.732Z,68.31
2022-11-29T05:54:14.904Z,68.13
2022-11-29T05:56:49.637Z,68.11
2022-11-29T05:59:20.853Z,68.21
2022-11-29T06:02:14.227Z,68.23
2022-11-29T06:04:57.393Z,68.22
2022-11-29T06:07:45.418Z,68.10
2022-11-29T06:10:17.842Z,68.38
2022-11-29T06:13:11.890Z,68.33
2022-11-29T06:15:58.651Z,68.39
2022-11-29T06:19:05.363Z,68.37
2022-11-29T06:22:01.142Z,68.32
2022-11-29T06:24:41.732Z,68.29
2022-11-29T06:27:31.911Z,68.11
2022-11-29T06:30:18.461Z,68.05
2022-11-29T06:32:57.066Z,67.99
2022-11-29T06:35:54.369Z,68.00
2022-11-29T06:38:26.065Z,68.23
2022-11-29T06:40:58.697Z,68.03
2022-11-29T06:43:30.393Z,67.81
2022-11-29T06:46:14.341Z,67.83
2022-11-29T06:48:49.784Z,67.69
2022-11-29T06:51:30.835Z,67.54
2022-11-29T06:54:08.187Z,67.40
2022-11-29T06:56:41.739Z,67.25
2022-11-29T06:59:28.588Z,67.25
2022-11-29T07:02:38.867Z,67.40
2022-11-29T07:05:27.257Z,67.77
2022-11-29T07:08:04.455Z,67.89
2022-11-29T07:10:35.189Z,68.00
2022-11-29T07:13:03.437Z,68.03
2022-11-29T07:15:31.886Z,68.08
2022-11-29T07:17:59.612Z,67.87
2022-11-29T07:20:44.628Z,67.73
2022-11-29T07:23:21.783Z,67.63
2022-11-29T07:26:27.091Z,68.00
2022-11-29T07:29:23.235Z,68.14
2022-11-29T07:32:09.318Z,68.16
2022-11-29T07:34:40.014Z,68.14
2022-11-29T07:37:11.023Z,68.20
2022-11-29T07:39:46.886Z,68.14
2022-11-29T07:42:54.315Z,68.30
2022-11-29T07:45:36.849Z,68.49
2022-11-29T07:48:04.863Z,68.41
2022-11-29T07:50:43.555Z,68.85
2022-11-29T07:53:30.362Z,68.29
2022-11-29T07:55:58.677Z,67.85
2022-11-29T07:58:27.027Z,66.24
2022-11-29T08:00:55.005Z,65.78
2022-11-29T08:03:23.121Z,63.88
2022-11-29T08:05:51.056Z,63.45
2022-11-29T08:08:18.894Z,62.36
2022-11-29T08:10:47.425Z,60.70
2022-11-29T08:13:15.461Z,59.63
2022-11-29T08:15:47.590Z,58.44
2022-11-29T08:18:17.679Z,57.31
2022-11-29T08:20:46.496Z,57.58
2022-11-29T08:23:14.980Z,57.13
2022-11-29T08:25:43.167Z,57.35
2022-11-29T08:28:11.241Z,57.59
2022-11-29T08:30:39.637Z,57.66
2022-11-29T08:33:08.803Z,57.39
2022-11-29T08:35:36.666Z,56.56
2022-11-29T08:38:05.183Z,55.47
2022-11-29T08:40:33.528Z,54.35
2022-11-29T08:43:01.408Z,53.12
2022-11-29T08:45:29.423Z,53.37
2022-11-29T08:47:57.368Z,51.49
2022-11-29T08:50:25.822Z,50.97
2022-11-29T08:53:12.393Z,49.48
2022-11-29T08:55:42.940Z,48.63
2022-11-29T08:58:13.960Z,47.42
2022-11-29T09:00:45.625Z,46.12
2022-11-29T09:03:32.309Z,45.15
2022-11-29T09:06:10.440Z,44.40
2022-11-29T09:08:43.802Z,44.12
2022-11-29T09:11:23.772Z,43.73
2022-11-29T09:13:58.156Z,43.94
2022-11-29T09:16:29.405Z,44.01
2022-11-29T09:18:57.533Z,43.66
2022-11-29T09:21:27.517Z,41.83
2022-11-29T09:23:59.413Z,40.78
2022-11-29T09:26:30.449Z,40.75
2022-11-29T09:29:01.585Z,39.58
2022-11-29T09:31:31.488Z,39.59
2022-11-29T09:33:59.810Z,39.64
2022-11-29T09:36:29.461Z,40.06
2022-11-29T09:38:58.156Z,38.84
2022-11-29T09:41:45.605Z,37.90
2022-11-29T09:44:43.424Z,38.17
2022-11-29T09:47:23.864Z,37.97
2022-11-29T09:50:21.813Z,37.31
2022-11-29T09:53:27.467Z,36.23
2022-11-29T09:56:05.918Z,36.02
2022-11-29T09:58:43.708Z,35.76
2022-11-29T10:01:20.732Z,36.30
2022-11-29T10:04:01.038Z,35.96
2022-11-29T10:06:37.017Z,35.74
2022-11-29T10:09:15.846Z,35.71
2022-11-29T10:11:53.531Z,34.41
2022-11-29T10:14:27.223Z,34.25
2022-11-29T10:17:18.277Z,33.65
2022-11-29T10:20:03.275Z,33.52
2022-11-29T10:22:36.958Z,33.87
2022-11-29T10:25:06.967Z,33.79
2022-11-29T10:27:39.280Z,34.12
2022-11-29T10:30:14.949Z,33.40
2022-11-29T10:32:46.742Z,32.07
2022-11-29T10:35:17.318Z,31.80
2022-11-29T10:38:01.544Z,32.32
2022-11-29T10:40:37.946Z,32.18
2022-11-29T10:43:05.933Z,32.22
2022-11-29T10:45:39.176Z,30.97
2022-11-29T10:48:12.759Z,30.59
2022-11-29T10:50:42.750Z,30.08
2022-11-29T10:53:17.210Z,30.46
2022-11-29T10:56:01.638Z,30.25
2022-11-29T10:58:30.932Z,29.39
2022-11-29T11:01:06.950Z,29.49
2022-11-29T11:03:42.532Z,29.28
2022-11-29T11:06:16.434Z,28.87
2022-11-29T11:08:55.264Z,29.37
2022-11-29T11:11:29.169Z,29.65
2022-11-29T11:13:58.063Z,29.85
2022-11-29T11:16:27.080Z,29.21
2022-11-29T11:18:55.134Z,28.45
2022-11-29T11:21:24.332Z,28.15
2022-11-29T11:23:56.807Z,27.99
2022-11-29T11:26:26.297Z,27.72
2022-11-29T11:29:02.579Z,27.58
2022-11-29T11:31:41.069Z,27.64
2022-11-29T11:34:26.731Z,28.02
2022-11-29T11:37:31.516Z,28.39
2022-11-29T11:40:18.404Z,28.42
2022-11-29T11:42:47.196Z,28.57
2022-11-29T11:45:15.113Z,28.57
2022-11-29T11:47:46.597Z,29.09
2022-11-29T11:50:15.477Z,28.83
2022-11-29T11:52:55.755Z,28.98
2022-11-29T11:55:40.806Z,29.63
2022-11-29T11:58:16.233Z,30.28
2022-11-29T12:01:06.274Z,30.16
2022-11-29T12:03:49.820Z,29.38
2022-11-29T12:06:24.293Z,28.89
2022-11-29T12:09:02.581Z,27.94
2022-11-29T12:11:48.578Z,28.36
2022-11-29T12:14:27.243Z,29.52
2022-11-29T12:17:01.886Z,30.12
2022-11-29T12:19:42.030Z,30.62
2022-11-29T12:22:13.956Z,30.93
2022-11-29T12:24:51.779Z,30.43
2022-11-29T12:27:19.622Z,29.61
2022-11-29T12:29:47.521Z,29.40
2022-11-29T12:32:15.208Z,28.84
2022-11-29T12:35:01.162Z,28.62
2022-11-29T12:37:49.934Z,27.85
2022-11-29T12:40:17.582Z,27.39
2022-11-29T12:43:02.559Z,26.96
2022-11-29T12:46:17.201Z,26.91
2022-11-29T12:49:14.005Z,27.25
2022-11-29T12:52:01.795Z,27.05
2022-11-29T12:54:43.915Z,27.25
2022-11-29T12:57:18.116Z,27.65
2022-11-29T13:00:01.275Z,27.79
2022-11-29T13:03:14.537Z,27.75
2022-11-29T13:06:18.794Z,27.44
2022-11-29T13:09:14.182Z,27.22
2022-11-29T13:12:09.672Z,27.33
2022-11-29T13:14:49.788Z,27.09
2022-11-29T13:17:55.889Z,27.13
2022-11-29T13:20:35.149Z,26.56
2022-11-29T13:23:39.008Z,26.47
2022-11-29T13:26:13.891Z,26.94
2022-11-29T13:28:44.485Z,27.13
2022-11-29T13:31:17.328Z,27.80
2022-11-29T13:34:14.454Z,28.64
2022-11-29T13:36:54.544Z,29.92
2022-11-29T13:39:39.126Z,31.31
2022-11-29T13:42:29.465Z,32.51
2022-11-29T13:45:00.287Z,33.71
2022-11-29T13:47:28.686Z,34.97
2022-11-29T13:50:06.691Z,35.88
2022-11-29T13:52:47.768Z,36.90
2022-11-29T13:55:28.908Z,37.55
2022-11-29T13:58:16.702Z,37.82
2022-11-29T14:00:45.915Z,38.52
2022-11-29T14:03:28.972Z,38.78
2022-11-29T14:06:16.062Z,39.18
2022-11-29T14:11:52.626Z,40.31
2022-11-29T14:14:49.990Z,40.48
2022-11-29T14:17:47.683Z,40.88
2022-11-29T14:20:30.830Z,41.38
2022-11-29T14:23:04.853Z,41.85
2022-11-29T14:25:50.974Z,41.94
2022-11-29T14:28:22.784Z,42.31
2022-11-29T14:30:55.545Z,42.97
2022-11-29T14:33:37.697Z,43.03
2022-11-29T14:36:14.525Z,43.45
2022-11-29T14:39:01.273Z,43.97
2022-11-29T14:41:38.942Z,44.20
2022-11-29T14:44:39.361Z,44.30
2022-11-29T14:47:18.951Z,44.46
2022-11-29T14:49:47.076Z,44.85
2022-11-29T14:52:14.784Z,45.45
2022-11-29T14:54:57.584Z,45.47
2022-11-29T14:57:47.441Z,45.93
2022-11-29T15:00:16.203Z,46.05
2022-11-29T15:02:50.364Z,45.99
2022-11-29T15:05:24.458Z,46.20
2022-11-29T15:08:32.967Z,46.15
2022-11-29T15:11:10.038Z,46.30
2022-11-29T15:13:51.221Z,46.38
2022-11-29T15:16:34.517Z,46.41
2022-11-29T15:19:08.664Z,46.38
2022-11-29T15:22:09.845Z,46.42
2022-11-29T15:25:05.166Z,46.69
2022-11-29T15:27:37.368Z,46.80
2022-11-29T15:30:21.586Z,47.44
2022-11-29T15:32:49.521Z,47.94
2022-11-29T15:35:19.825Z,48.19
2022-11-29T15:37:49.833Z,48.99
2022-11-29T15:40:21.511Z,49.52
2022-11-29T15:42:58.010Z,49.97
2022-11-29T15:45:27.914Z,50.42
2022-11-29T15:48:10.517Z,50.65
2022-11-29T15:50:42.958Z,50.73
2022-11-29T15:53:19.589Z,50.79
2022-11-29T15:55:50.933Z,51.31
2022-11-29T15:58:19.354Z,51.47
2022-11-29T16:00:49.846Z,51.82
2022-11-29T16:03:30.042Z,52.33
2022-11-29T16:06:08.509Z,52.58
2022-11-29T16:08:41.997Z,52.56
2022-11-29T16:11:17.248Z,52.88
2022-11-29T16:14:11.447Z,52.74
2022-11-29T16:16:41.801Z,53.52
2022-11-29T16:19:11.243Z,53.99
2022-11-29T16:21:39.351Z,54.06
2022-11-29T16:24:21.373Z,54.63
2022-11-29T16:26:50.989Z,54.45
2022-11-29T16:29:46.466Z,54.48
2022-11-29T16:32:15.949Z,54.60
2022-11-29T16:34:45.035Z,54.40
2022-11-29T16:37:42.133Z,54.51
2022-11-29T16:40:25.922Z,54.47
2022-11-29T16:43:03.182Z,54.75
2022-11-29T16:45:41.495Z,55.40
2022-11-29T16:48:26.761Z,55.45
2022-11-29T16:51:09.849Z,55.82
2022-11-29T16:53:47.786Z,56.02
2022-11-29T16:56:17.495Z,56.01
2022-11-29T16:59:16.981Z,56.40
2022-11-29T17:01:37.826Z,56.48
2022-11-29T17:04:05.624Z,57.10
2022-11-29T17:06:35.462Z,57.69
2022-11-29T17:09:04.258Z,57.79
2022-11-29T17:11:32.569Z,57.81
2022-11-29T17:14:00.554Z,58.02
2022-11-29T17:16:28.557Z,58.05
2022-11-29T17:18:56.686Z,58.06
2022-11-29T17:21:27.049Z,58.22
2022-11-29T17:23:55.284Z,58.47
2022-11-29T17:26:23.490Z,58.92
2022-11-29T17:28:52.031Z,59.11
2022-11-29T17:31:24.282Z,59.34
2022-11-29T17:33:52.429Z,59.61
2022-11-29T17:36:21.463Z,59.62
2022-11-29T17:38:49.362Z,59.67
2022-11-29T17:41:18.714Z,59.73
2022-11-29T17:43:46.468Z,59.80
2022-11-29T17:46:15.880Z,59.80
2022-11-29T17:48:46.261Z,59.85
2022-11-29T17:51:43.767Z,60.21
2022-11-29T17:54:04.518Z,60.19
2022-11-29T17:56:32.904Z,60.26
2022-11-29T17:59:02.728Z,60.09
2022-11-29T18:01:35.947Z,60.18
2022-11-29T18:04:06.264Z,60.16
2022-11-29T18:06:40.815Z,60.44
2022-11-29T18:09:09.672Z,60.45
2022-11-29T18:11:46.934Z,60.67
2022-11-29T18:14:18.578Z,60.50
2022-11-29T18:16:46.663Z,61.37
2022-11-29T18:19:17.310Z,61.47
2022-11-29T18:21:45.375Z,61.60
2022-11-29T18:24:13.645Z,61.89
2022-11-29T18:26:42.221Z,61.63
2022-11-29T18:29:10.587Z,62.17
2022-11-29T18:31:40.227Z,62.38
2022-11-29T18:34:09.994Z,62.65
2022-11-29T18:37:20.019Z,62.63
2022-11-29T18:48:14.759Z,62.87
2022-11-29T18:50:41.292Z,62.76
2022-11-29T18:53:07.926Z,62.78
2022-11-29T18:55:34.553Z,62.71
2022-11-29T18:58:01.073Z,62.58
2022-11-29T19:00:27.569Z,62.78
2022-11-29T19:02:55.541Z,62.95
2022-11-29T19:05:22.313Z,63.62
2022-11-29T19:07:48.763Z,63.79
2022-11-29T19:10:15.460Z,63.61
2022-11-29T19:12:42.056Z,63.75
2022-11-29T19:15:09.077Z,63.82
2022-11-29T19:17:40.154Z,64.20
2022-11-29T19:20:10.159Z,64.21
2022-11-29T19:22:36.717Z,63.89
2022-11-29T19:25:03.466Z,64.24
2022-11-29T19:27:30.175Z,64.00
2022-11-29T19:29:56.714Z,64.06
2022-11-29T19:32:23.552Z,64.23
2022-11-29T19:34:50.232Z,64.33
2022-11-29T19:37:16.958Z,64.50
2022-11-29T19:39:44.027Z,64.48
2022-11-29T19:42:10.804Z,64.45
2022-11-29T19:45:08.621Z,64.40
2022-11-29T19:47:24.349Z,64.33
2022-11-29T19:49:50.962Z,64.56
2022-11-29T19:52:17.786Z,64.24
2022-11-29T19:54:44.300Z,64.39
2022-11-29T19:57:11.760Z,64.45
2022-11-29T19:59:38.324Z,64.54
2022-11-29T20:02:05.041Z,64.69
2022-11-29T20:04:31.795Z,64.75
2022-11-29T20:06:58.298Z,64.71
2022-11-29T20:09:27.707Z,65.00
2022-11-29T20:11:54.304Z,65.23
2022-11-29T20:14:21.514Z,65.34
2022-11-29T20:16:48.252Z,65.53
2022-11-29T20:19:16.288Z,65.47
2022-11-29T20:21:45.715Z,65.78
2022-11-29T20:24:13.686Z,65.77
2022-11-29T20:26:43.625Z,65.70
2022-11-29T20:29:11.174Z,65.51
2022-11-29T20:31:44.387Z,65.83
2022-11-29T20:34:14.765Z,65.93
2022-11-29T20:37:12.569Z,65.96
2022-11-29T20:39:52.871Z,65.88
2022-11-29T20:42:38.623Z,65.87
2022-11-29T20:45:08.329Z,65.82
2022-11-29T20:48:08.690Z,65.79
2022-11-29T20:50:35.313Z,66.18
2022-11-29T20:53:29.181Z,66.03
2022-11-29T20:55:55.872Z,66.26
2022-11-29T20:58:22.445Z,66.70
2022-11-29T21:00:49.026Z,66.85
2022-11-29T21:03:17.536Z,66.88
2022-11-29T21:05:45.065Z,66.98
2022-11-29T21:08:13.500Z,66.95
2022-11-29T21:10:39.875Z,67.08
2022-11-29T21:13:07.011Z,67.49
2022-11-29T21:15:34.142Z,67.03
2022-11-29T21:18:01.066Z,67.23
2022-11-29T21:20:27.854Z,67.29
2022-11-29T21:23:06.993Z,67.37
2022-11-29T21:25:55.813Z,67.49
2022-11-29T21:28:25.178Z,67.45
2022-11-29T21:30:51.915Z,67.48
2022-11-29T21:33:18.858Z,67.23
2022-11-29T21:35:46.776Z,67.02
2022-11-29T21:38:23.915Z,66.90
2022-11-29T21:40:51.123Z,66.98
2022-11-29T21:43:17.723Z,66.86
2022-11-29T21:45:46.992Z,66.97
2022-11-29T21:48:32.867Z,66.79
2022-11-29T21:50:59.266Z,66.97
2022-11-29T21:53:27.436Z,67.09
2022-11-29T21:56:04.115Z,66.76
2022-11-29T21:58:32.331Z,66.86
2022-11-29T22:01:11.922Z,66.88
2022-11-29T22:03:39.509Z,66.96
2022-11-29T22:06:09.288Z,67.48
2022-11-29T22:08:40.678Z,67.56
2022-11-29T22:11:10.063Z,67.64
2022-11-29T22:13:57.381Z,67.42
2022-11-29T22:16:24.168Z,67.31
2022-11-29T22:18:50.986Z,67.26
2022-11-29T22:21:17.610Z,66.94
2022-11-29T22:23:44.275Z,66.88
2022-11-29T22:26:11.430Z,66.98
2022-11-29T22:28:38.099Z,66.99
2022-11-29T22:31:10.172Z,66.93
2022-11-29T22:33:37.842Z,67.05
2022-11-29T22:36:05.321Z,67.00
2022-11-29T22:38:32.296Z,66.92
2022-11-29T22:41:04.278Z,67.02
2022-11-29T22:43:31.885Z,66.94
2022-11-29T22:46:12.332Z,66.87
2022-11-29T22:48:39.296Z,66.75
2022-11-29T22:51:15.145Z,66.57
2022-11-29T22:53:47.067Z,66.39
2022-11-29T22:56:13.806Z,66.59
2022-11-29T22:58:40.321Z,66.54
2022-11-29T23:01:11.420Z,66.53
2022-11-29T23:03:39.252Z,66.50
2022-11-29T23:06:08.388Z,66.32
2022-11-29T23:08:35.458Z,66.26
2022-11-29T23:11:03.954Z,66.27
2022-11-29T23:13:36.268Z,66.31
2022-11-29T23:16:03.695Z,66.28
2022-11-29T23:18:30.629Z,66.34
2022-11-29T23:21:11.139Z,66.41
2022-11-29T23:23:38.072Z,66.42
2022-11-29T23:26:06.675Z,66.46
2022-11-29T23:28:34.461Z,66.83
2022-11-29T23:31:01.470Z,66.84
2022-11-29T23:33:28.059Z,66.98
2022-11-29T23:36:04.413Z,67.07
2022-11-29T23:38:31.077Z,66.83
2022-11-29T23:40:58.215Z,66.77
2022-11-29T23:43:27.904Z,66.86
2022-11-29T23:45:54.686Z,66.75
2022-11-29T23:48:21.270Z,66.58
2022-11-29T23:50:48.318Z,66.30
2022-11-29T23:53:16.850Z,66.27
2022-11-29T23:55:43.297Z,66.25
2022-11-29T23:58:10.284Z,66.38
